Time;durP1;ratioP1;P1;durP2;ratioP2;P2;SDS_P1;SDS_P2;PMS_P1;PMS_P2;Temp;Humidity;BMP_temperature;BMP_pressure;BME280_temperature;BME280_humidity;BME280_pressure;Samples;Min_cycle;Max_cycle;Signal;HPM_P1;HPM_P2
2022/09/13 00:00:54;;;;;;;7.53;4.20;;;;;;;16.23;100.00;99611.63;5109040;28;20023;-66
2022/09/13 00:03:20;;;;;;;6.55;3.70;;;;;;;16.26;100.00;99616.84;5109261;28;20026;-66
2022/09/13 00:05:46;;;;;;;7.88;4.38;;;;;;;16.16;100.00;99594.22;5109439;28;20072;-66
2022/09/13 00:08:12;;;;;;;8.68;4.10;;;;;;;16.19;100.00;99602.06;5111054;28;20480;-66
2022/09/13 00:10:40;;;;;;;7.30;4.07;;;;;;;16.18;100.00;99603.00;5110733;28;20027;-66
2022/09/13 00:13:07;;;;;;;8.15;4.00;;;;;;;16.19;100.00;99602.06;5110389;28;20023;-67
2022/09/13 00:15:34;;;;;;;6.00;3.75;;;;;;;16.20;100.00;99601.09;5110550;28;20032;-66
2022/09/13 00:18:00;;;;;;;6.93;3.83;;;;;;;16.17;100.00;99591.44;5110271;28;20049;-66
2022/09/13 00:20:26;;;;;;;6.93;3.90;;;;;;;16.15;100.00;99593.34;5110574;28;20031;-66
2022/09/13 00:22:51;;;;;;;8.63;3.90;;;;;;;16.10;100.00;99590.06;5109945;28;20433;-66
2022/09/13 00:25:17;;;;;;;6.18;3.72;;;;;;;16.11;100.00;99583.75;5110202;28;20031;-66
2022/09/13 00:27:43;;;;;;;6.47;3.88;;;;;;;16.03;100.00;99577.16;5110363;28;20027;-66
2022/09/13 00:30:10;;;;;;;7.68;4.18;;;;;;;16.02;100.00;99580.78;5104140;28;20483;-66
2022/09/13 00:32:36;;;;;;;19.63;4.45;;;;;;;15.95;100.00;99574.09;5103922;28;20074;-66
2022/09/13 00:35:04;;;;;;;9.00;4.53;;;;;;;15.93;100.00;99576.00;5110367;28;20028;-66
2022/09/13 00:37:32;;;;;;;7.55;3.72;;;;;;;15.87;100.00;99577.22;5110200;28;20042;-66
2022/09/13 00:39:57;;;;;;;6.80;3.70;;;;;;;15.82;100.00;99580.19;5102649;28;20107;-66
2022/09/13 00:42:27;;;;;;;8.90;4.22;;;;;;;15.80;100.00;99590.13;5089525;28;20160;-66
2022/09/13 00:45:13;;;;;;;6.15;3.08;;;;;;;15.75;100.00;99589.53;5090358;28;20509;-66
2022/09/13 00:47:47;;;;;;;6.10;3.50;;;;;;;15.71;100.00;99588.03;5089497;28;20542;-66
2022/09/13 00:50:38;;;;;;;8.50;3.60;;;;;;;15.69;100.00;99584.56;5089605;28;20051;-66
2022/09/13 00:53:06;;;;;;;7.70;3.70;;;;;;;15.67;100.00;99586.47;5088124;28;20031;-66
2022/09/13 00:55:51;;;;;;;6.18;3.38;;;;;;;15.67;100.00;99591.84;5089064;28;20028;-66
2022/09/13 00:58:21;;;;;;;6.30;3.70;;;;;;;15.65;100.00;99588.38;5106456;28;20492;-66
2022/09/13 01:00:47;;;;;;;6.32;3.67;;;;;;;15.63;100.00;99600.16;5108537;28;20035;-66
2022/09/13 01:03:16;;;;;;;6.38;3.72;;;;;;;15.64;100.00;99591.16;5092184;28;20070;-66
2022/09/13 01:05:45;;;;;;;6.75;3.70;;;;;;;15.60;100.00;99595.81;5089699;28;20507;-66
2022/09/13 01:08:21;;;;;;;6.45;3.70;;;;;;;15.56;100.00;99594.31;5089433;28;20114;-66
2022/09/13 01:10:48;;;;;;;6.20;3.58;;;;;;;15.51;100.00;99604.44;5089356;28;20024;-66
2022/09/13 01:13:25;;;;;;;7.40;3.85;;;;;;;15.48;100.00;99612.66;5091656;28;20051;-66
2022/09/13 01:15:51;;;;;;;6.32;3.58;;;;;;;15.49;100.00;99608.13;5089704;28;20032;-66
2022/09/13 01:18:17;;;;;;;6.50;3.22;;;;;;;15.41;100.00;99616.63;5095101;28;20494;-66
2022/09/13 01:20:55;;;;;;;7.72;3.75;;;;;;;15.39;100.00;99618.53;5109590;28;20023;-66
2022/09/13 01:23:47;;;;;;;12.90;4.20;;;;;;;15.39;100.00;99625.72;5087780;28;20055;-66
2022/09/13 01:26:18;;;;;;;6.35;3.83;;;;;;;15.39;100.00;99623.03;5089445;28;20036;-66
2022/09/13 01:29:33;;;;;;;7.45;3.60;;;;;;;15.44;100.00;99623.63;5089071;28;20085;-66
2022/09/13 01:32:10;;;;;;;;;;;;;;;15.48;100.00;99634.09;5086138;28;20044;-65
2022/09/13 01:35:06;;;;;;;6.38;3.70;;;;;;;15.52;100.00;99632.94;5088030;28;19923;-66
2022/09/13 01:38:17;;;;;;;6.20;3.90;;;;;;;15.53;100.00;99629.31;5087958;28;20213;-66
2022/09/13 01:40:59;;;;;;;6.97;4.55;;;;;;;15.57;100.00;99641.59;5067235;28;20066;-66
2022/09/13 01:43:25;;;;;;;7.68;4.47;;;;;;;15.57;100.00;99633.53;5091233;28;20023;-66
2022/09/13 01:45:53;;;;;;;6.40;3.85;;;;;;;15.55;100.00;99629.25;5092050;28;20407;-66
2022/09/13 01:48:56;;;;;;;6.63;3.83;;;;;;;15.52;100.00;99641.00;5092971;28;20114;-66
2022/09/13 01:51:57;;;;;;;6.00;3.70;;;;;;;15.52;100.00;99634.75;5092936;28;20054;-66
2022/09/13 01:54:52;;;;;;;5.93;3.63;;;;;;;15.51;100.00;99639.28;5010119;28;20057;-66
2022/09/13 01:57:30;;;;;;;7.05;3.63;;;;;;;15.55;100.00;99645.31;5104019;28;20032;-67
2022/09/13 02:00:13;;;;;;;8.65;4.15;;;;;;;15.56;100.00;99639.88;5072644;28;20029;-66
2022/09/13 02:02:45;;;;;;;7.43;4.15;;;;;;;15.63;100.00;99649.25;5087587;28;20055;-67
2022/09/13 02:05:20;;;;;;;8.48;4.35;;;;;;;15.61;100.00;99647.63;5091049;28;20553;-66
2022/09/13 02:07:57;;;;;;;8.25;4.68;;;;;;;15.61;100.00;99653.88;5090738;28;20031;-66
2022/09/13 02:10:30;;;;;;;6.82;4.43;;;;;;;15.61;100.00;99651.19;5090913;28;20026;-67
2022/09/13 02:12:58;;;;;;;8.48;4.70;;;;;;;15.57;100.00;99646.06;5090885;28;20035;-66
2022/09/13 02:15:33;;;;;;;6.78;4.32;;;;;;;15.54;100.00;99646.25;5090765;28;20032;-66
2022/09/13 02:18:11;;;;;;;6.40;3.67;;;;;;;15.54;100.00;99641.78;5090360;28;20027;-66
2022/09/13 02:20:43;;;;;;;7.50;4.35;;;;;;;15.52;100.00;99627.59;5092292;28;20672;-66
2022/09/13 02:23:17;;;;;;;7.25;3.88;;;;;;;15.53;100.00;99629.31;5102468;28;20051;-66
2022/09/13 02:25:45;;;;;;;6.25;3.80;;;;;;;15.51;100.00;99625.00;5108898;28;20035;-66
2022/09/13 02:28:17;;;;;;;7.15;3.67;;;;;;;15.53;100.00;99623.94;5092440;28;20078;-66
2022/09/13 02:30:47;;;;;;;6.25;4.07;;;;;;;15.53;100.00;99621.25;5091850;28;20031;-66
2022/09/13 02:33:17;;;;;;;6.97;4.07;;;;;;;15.51;100.00;99623.19;5112080;28;20447;-66
2022/09/13 02:35:52;;;;;;;7.15;4.07;;;;;;;15.52;100.00;99634.75;5112318;28;20380;-66
2022/09/13 02:38:31;;;;;;;8.23;3.92;;;;;;;15.52;100.00;99634.75;5112627;28;20042;-66
2022/09/13 02:41:26;;;;;;;5.90;3.95;;;;;;;15.46;100.00;99630.63;5112336;28;20027;-66
2022/09/13 02:44:20;;;;;;;5.93;3.40;;;;;;;15.45;100.00;99626.22;5081299;28;20353;-66
2022/09/13 02:47:05;;;;;;;6.28;3.50;;;;;;;15.33;100.00;99618.00;5093341;28;20044;-66
2022/09/13 02:49:50;;;;;;;5.80;3.50;;;;;;;15.24;100.00;99619.38;5095700;28;20028;-66
2022/09/13 02:52:46;;;;;;;6.18;3.55;;;;;;;15.18;100.00;99611.72;5092104;28;20020;-66
2022/09/13 02:55:31;;;;;;;6.13;3.58;;;;;;;15.24;100.00;99608.69;5090904;28;20026;-66
2022/09/13 02:58:08;;;;;;;5.60;3.38;;;;;;;15.22;100.00;99615.94;5106777;28;20062;-66
2022/09/13 03:00:33;;;;;;;5.80;3.58;;;;;;;15.14;100.00;99606.63;5112155;28;20031;-66
2022/09/13 03:03:03;;;;;;;7.75;3.47;;;;;;;15.09;100.00;99603.34;5112016;28;20025;-66
2022/09/13 03:05:28;;;;;;;6.75;3.53;;;;;;;15.08;100.00;99591.78;5106309;28;20046;-66
2022/09/13 03:07:54;;;;;;;5.63;3.17;;;;;;;15.05;100.00;99594.63;5091434;28;20024;-66
2022/09/13 03:10:22;;;;;;;6.90;3.53;;;;;;;15.06;100.00;99599.03;5109724;28;20038;-66
2022/09/13 03:13:22;;;;;;;7.88;3.97;;;;;;;15.04;100.00;99589.34;5110972;28;20040;-66
2022/09/13 03:16:06;;;;;;;12.48;4.07;;;;;;;15.01;100.00;99590.38;5091967;28;20111;-66
2022/09/13 03:18:40;;;;;;;6.45;4.32;;;;;;;14.99;100.00;99586.06;5110407;28;20023;-66
2022/09/13 03:21:22;;;;;;;6.40;3.75;;;;;;;15.00;100.00;99583.31;5110345;28;20112;-66
2022/09/13 03:24:45;;;;;;;7.32;4.00;;;;;;;15.01;100.00;99579.66;5109950;28;20043;-66
2022/09/13 03:27:33;;;;;;;6.30;4.00;;;;;;;15.01;100.00;99574.31;5027331;28;20120;-66
2022/09/13 03:30:04;;;;;;;6.80;3.50;;;;;;;15.03;100.00;99572.41;5028650;28;20033;-66
2022/09/13 03:33:03;;;;;;;7.32;3.65;;;;;;;15.05;100.00;99569.66;5093166;28;20391;-66
2022/09/13 03:35:37;;;;;;;6.10;3.60;;;;;;;15.09;100.00;99582.75;5111151;28;20400;-66
2022/09/13 03:38:37;;;;;;;8.95;4.05;;;;;;;15.13;100.00;99578.97;5111499;28;20019;-66
2022/09/13 03:41:13;;;;;;;5.88;3.13;;;;;;;15.17;100.00;99583.19;5111387;28;20020;-66
2022/09/13 03:43:52;;;;;;;5.75;3.60;;;;;;;15.11;100.00;99582.66;5111462;28;20031;-66
2022/09/13 03:46:25;;;;;;;6.13;3.58;;;;;;;15.10;100.00;99579.16;5111143;28;20027;-66
2022/09/13 03:48:52;;;;;;;6.18;3.72;;;;;;;15.13;100.00;99584.31;5111712;28;20413;-66
2022/09/13 03:51:18;;;;;;;7.78;3.70;;;;;;;15.14;100.00;99575.31;5111412;28;20028;-66
2022/09/13 03:53:55;;;;;;;7.93;3.67;;;;;;;15.14;100.00;99567.28;5111279;28;20020;-66
2022/09/13 03:56:21;;;;;;;5.95;3.60;;;;;;;15.13;100.00;99554.84;5110937;28;20024;-66
2022/09/13 03:58:48;;;;;;;5.70;3.55;;;;;;;15.21;100.00;99560.63;5112377;28;20243;-66
2022/09/13 04:01:24;;;;;;;6.30;3.78;;;;;;;15.27;100.00;99554.91;5110958;28;20092;-67
2022/09/13 04:03:50;;;;;;;6.72;3.72;;;;;;;15.34;100.00;99561.63;5110968;28;20031;-66
2022/09/13 04:06:16;;;;;;;5.95;3.53;;;;;;;15.39;100.00;99562.25;5110920;28;20024;-66
2022/09/13 04:08:43;;;;;;;6.70;4.07;;;;;;;15.41;100.00;99567.53;5111333;28;20501;-66
2022/09/13 04:11:09;;;;;;;5.70;3.92;;;;;;;15.46;100.00;99582.41;5092643;28;20039;-66
2022/09/13 04:13:35;;;;;;;8.50;3.47;;;;;;;15.40;100.00;99584.56;5110798;28;20479;-66
2022/09/13 04:16:02;;;;;;;5.95;3.55;;;;;;;15.41;100.00;99605.03;5110746;28;20528;-66
2022/09/13 04:18:28;;;;;;;6.38;3.40;;;;;;;15.37;100.00;99614.22;5110885;28;20482;-67
2022/09/13 04:20:56;;;;;;;5.05;3.10;;;;;;;15.27;100.00;99608.50;5110426;28;20035;-66
2022/09/13 04:23:22;;;;;;;5.57;3.30;;;;;;;15.27;100.00;99619.22;5110470;28;20043;-66
2022/09/13 04:25:47;;;;;;;8.75;3.42;;;;;;;15.25;100.00;99621.13;5097850;28;20466;-66
2022/09/13 04:28:13;;;;;;;5.82;3.33;;;;;;;15.27;100.00;99623.72;5089991;28;20034;-66
2022/09/13 04:30:42;;;;;;;6.75;3.65;;;;;;;15.25;100.00;99610.41;5089845;28;20487;-66
2022/09/13 04:33:07;;;;;;;5.13;3.10;;;;;;;15.27;100.00;99608.50;5109068;28;20027;-66
2022/09/13 04:35:33;;;;;;;5.20;3.20;;;;;;;15.25;100.00;99605.06;5110441;28;20034;-66
2022/09/13 04:37:58;;;;;;;7.72;3.72;;;;;;;15.22;100.00;99604.38;5110345;28;20502;-66
2022/09/13 04:40:24;;;;;;;7.07;3.70;;;;;;;15.19;100.00;99610.75;5110175;28;20077;-66
2022/09/13 04:42:49;;;;;;;5.75;3.47;;;;;;;15.18;100.00;99614.41;5094913;28;20024;-66
2022/09/13 04:45:15;;;;;;;5.40;3.60;;;;;;;15.19;100.00;99616.13;5089821;28;20387;-67
2022/09/13 04:47:40;;;;;;;5.78;3.17;;;;;;;15.22;100.00;99632.00;5089556;28;20471;-66
2022/09/13 04:50:06;;;;;;;6.78;3.03;;;;;;;15.18;100.00;99625.13;5088680;28;20554;-66
2022/09/13 04:52:32;;;;;;;6.88;3.80;;;;;;;15.24;100.00;99624.75;5088462;28;20034;-66
2022/09/13 04:55:00;;;;;;;6.35;3.85;;;;;;;15.17;100.00;99607.28;5088520;28;20043;-66
2022/09/13 04:57:28;;;;;;;5.75;3.53;;;;;;;15.26;100.00;99628.22;5099558;28;20031;-67
2022/09/13 04:59:54;;;;;;;8.35;3.83;;;;;;;15.30;100.00;99635.13;5108854;28;20019;-66
2022/09/13 05:02:19;;;;;;;6.82;3.70;;;;;;;15.34;100.00;99623.28;5108492;28;20027;-66
2022/09/13 05:04:45;;;;;;;7.45;4.13;;;;;;;15.44;100.00;99621.81;5104558;28;20015;-66
2022/09/13 05:07:10;;;;;;;6.88;3.80;;;;;;;15.48;100.00;99622.50;5109995;28;20474;-67
2022/09/13 05:09:36;;;;;;;7.65;4.05;;;;;;;15.49;100.00;99621.53;5110049;28;20478;-67
2022/09/13 05:12:01;;;;;;;7.25;3.45;;;;;;;15.54;100.00;99606.91;5108787;28;20031;-66
2022/09/13 05:14:27;;;;;;;9.63;4.43;;;;;;;15.62;100.00;99611.81;5108447;28;20123;-67
2022/09/13 05:16:52;;;;;;;11.68;3.78;;;;;;;15.70;100.00;99614.91;5107716;28;20098;-66
2022/09/13 05:19:18;;;;;;;7.03;3.92;;;;;;;15.70;100.00;99613.09;5107949;28;20034;-67
2022/09/13 05:21:43;;;;;;;10.25;4.22;;;;;;;15.78;100.00;99626.06;5108063;28;20015;-66
2022/09/13 05:24:09;;;;;;;7.97;3.70;;;;;;;15.81;100.00;99633.91;5108370;28;20048;-67
2022/09/13 05:26:34;;;;;;;8.75;3.83;;;;;;;15.82;100.00;99627.59;5108810;28;20024;-66
2022/09/13 05:29:00;;;;;;;7.22;3.70;;;;;;;15.80;100.00;99627.69;5109590;28;20046;-66
2022/09/13 05:31:32;;;;;;;6.63;3.00;;;;;;;15.79;100.00;99625.09;5109327;28;20027;-66
2022/09/13 05:34:07;;;;;;;10.27;3.78;;;;;;;15.79;100.00;99650.09;5109520;28;20064;-66
2022/09/13 05:36:33;;;;;;;6.25;3.42;;;;;;;15.79;100.00;99644.75;5109559;28;20024;-66
2022/09/13 05:38:59;;;;;;;8.60;3.42;;;;;;;15.74;100.00;99646.84;5109560;28;20031;-66
2022/09/13 05:41:25;;;;;;;9.00;4.20;;;;;;;15.80;100.00;99657.19;5090961;28;20110;-66
2022/09/13 05:43:50;;;;;;;15.00;4.78;;;;;;;15.79;100.00;99655.47;5109703;28;20099;-66
2022/09/13 05:46:18;;;;;;;11.02;4.10;;;;;;;15.82;100.00;99649.91;5109464;28;20440;-66
2022/09/13 05:48:45;;;;;;;10.70;5.22;;;;;;;15.83;100.00;99657.00;5109405;28;20110;-67
2022/09/13 05:51:19;;;;;;;10.98;5.05;;;;;;;15.84;100.00;99647.13;5109347;28;20028;-66
2022/09/13 05:53:47;;;;;;;9.32;4.10;;;;;;;15.85;100.00;99659.59;5109702;28;20027;-66
2022/09/13 05:56:15;;;;;;;17.85;4.40;;;;;;;15.91;100.00;99661.03;5109346;28;20050;-66
2022/09/13 05:58:42;;;;;;;13.15;6.75;;;;;;;15.94;100.00;99658.19;5108267;28;20081;-66
2022/09/13 06:01:10;;;;;;;9.88;4.82;;;;;;;16.00;100.00;99652.44;5109098;28;20045;-66
2022/09/13 06:03:35;;;;;;;13.50;4.78;;;;;;;16.12;100.00;99657.94;5108183;28;20486;-66
2022/09/13 06:06:03;;;;;;;13.95;6.25;;;;;;;16.24;100.00;99653.66;5089099;28;20043;-66
2022/09/13 06:08:30;;;;;;;12.27;4.43;;;;;;;16.35;100.00;99648.47;5107352;28;20054;-67
2022/09/13 06:11:03;;;;;;;14.68;5.10;;;;;;;16.52;100.00;99645.63;5107437;28;20050;-66
2022/09/13 06:13:29;;;;;;;7.35;4.07;;;;;;;16.69;100.00;99637.38;5107268;28;20128;-66
2022/09/13 06:15:59;;;;;;;9.50;4.10;;;;;;;16.94;100.00;99621.41;5107359;28;20561;-66
2022/09/13 06:18:25;;;;;;;9.98;4.57;;;;;;;17.54;100.00;99620.13;5107972;28;20023;-66
2022/09/13 06:21:00;;;;;;;7.70;4.32;;;;;;;18.45;100.00;99619.19;5109150;28;20118;-66
2022/09/13 06:23:27;;;;;;;6.05;3.60;;;;;;;19.76;100.00;99626.44;5109103;28;20055;-65
2022/09/13 06:26:11;;;;;;;6.75;3.95;;;;;;;22.24;87.65;99618.59;5108636;28;20030;-66
2022/09/13 06:28:37;;;;;;;6.35;3.70;;;;;;;24.38;72.69;99623.34;5109459;28;20085;-65
2022/09/13 06:31:03;;;;;;;5.95;3.17;;;;;;;26.10;62.00;99609.69;5110397;28;20553;-66
2022/09/13 06:33:28;;;;;;;5.53;3.15;;;;;;;27.40;55.43;99602.13;5096616;28;20020;-66
2022/09/13 06:35:54;;;;;;;9.23;3.13;;;;;;;28.41;50.80;99610.81;5092095;28;20039;-66
2022/09/13 06:38:19;;;;;;;6.10;2.78;;;;;;;29.10;46.48;99623.00;5091577;28;20467;-65
2022/09/13 06:40:45;;;;;;;7.22;3.40;;;;;;;29.63;45.03;99612.13;5092577;28;20035;-65
2022/09/13 06:43:10;;;;;;;5.88;2.78;;;;;;;30.11;44.15;99602.72;5090567;28;20115;-65
2022/09/13 06:45:36;;;;;;;6.80;2.70;;;;;;;30.52;43.37;99595.88;5088761;28;20381;-65
2022/09/13 06:48:02;;;;;;;5.05;2.70;;;;;;;30.19;42.98;99594.44;5088000;28;20020;-65
2022/09/13 06:50:27;;;;;;;7.35;2.97;;;;;;;30.33;42.09;99586.25;5088134;28;20055;-65
2022/09/13 06:52:54;;;;;;;7.18;2.65;;;;;;;30.59;42.43;99592.16;5088367;28;20044;-65
2022/09/13 06:55:20;;;;;;;5.45;2.38;;;;;;;30.73;40.86;99588.59;5088563;28;20024;-65
2022/09/13 06:57:46;;;;;;;4.15;2.45;;;;;;;30.84;40.70;99573.59;5102847;28;20026;-65
2022/09/13 07:00:12;;;;;;;4.13;2.17;;;;;;;30.04;40.29;99569.69;5111085;28;20027;-65
2022/09/13 07:02:37;;;;;;;4.13;2.42;;;;;;;29.75;42.06;99569.59;5111704;28;20028;-65
2022/09/13 07:05:03;;;;;;;5.88;2.80;;;;;;;29.45;42.59;99556.72;5110875;28;20732;-65
2022/09/13 07:07:29;;;;;;;6.00;2.38;;;;;;;29.31;43.38;99562.97;5111759;28;20034;-65
2022/09/13 07:09:55;;;;;;;5.25;2.63;;;;;;;29.54;44.74;99569.34;5111725;28;20019;-65
2022/09/13 07:12:20;;;;;;;6.32;2.47;;;;;;;29.43;44.18;99567.00;5111538;28;20024;-65
2022/09/13 07:14:46;;;;;;;6.78;2.60;;;;;;;28.69;43.98;99570.22;5111681;28;20016;-65
2022/09/13 07:17:11;;;;;;;5.65;2.45;;;;;;;27.26;47.79;99567.22;5112587;28;20114;-65
2022/09/13 07:19:37;;;;;;;3.83;2.20;;;;;;;26.43;50.91;99567.13;5112354;28;20444;-65
2022/09/13 07:22:03;;;;;;;8.38;2.70;;;;;;;25.80;52.99;99570.03;5111147;28;20110;-65
2022/09/13 07:24:29;;;;;;;5.22;3.05;;;;;;;25.14;55.74;99573.25;5111336;28;20020;-65
2022/09/13 07:26:54;;;;;;;6.05;2.88;;;;;;;24.54;58.60;99567.34;5111456;28;20125;-64
2022/09/13 07:29:22;;;;;;;5.03;2.45;;;;;;;24.49;59.57;99574.22;5111569;28;20522;-65
2022/09/13 07:31:50;;;;;;;4.80;2.30;;;;;;;24.50;59.70;99576.78;5111205;28;20114;-65
2022/09/13 07:34:21;;;;;;;5.00;1.98;;;;;;;24.72;58.75;99570.16;5111621;28;20487;-65
2022/09/13 07:36:47;;;;;;;6.03;2.28;;;;;;;25.05;58.09;99575.00;5110853;28;20392;-65
2022/09/13 07:39:14;;;;;;;5.53;2.22;;;;;;;25.47;58.14;99573.44;5110829;28;20023;-65
2022/09/13 07:41:40;;;;;;;4.57;2.20;;;;;;;26.05;57.79;99572.97;5111038;28;20058;-65
2022/09/13 07:44:06;;;;;;;3.63;2.13;;;;;;;26.34;55.54;99573.56;5111130;28;20027;-65
2022/09/13 07:46:38;;;;;;;3.63;1.98;;;;;;;26.58;55.78;99565.53;5110952;28;20417;-65
2022/09/13 07:49:04;;;;;;;3.42;2.00;;;;;;;26.87;55.89;99549.69;5110371;28;20341;-65
2022/09/13 07:51:32;;;;;;;3.42;2.30;;;;;;;26.66;54.24;99546.50;5110983;28;20107;-65
2022/09/13 07:54:03;;;;;;;3.25;1.90;;;;;;;27.04;55.41;99548.72;5110415;28;20114;-64
2022/09/13 07:56:33;;;;;;;4.60;2.13;;;;;;;27.39;55.42;99534.84;5110999;28;20019;-64
2022/09/13 07:59:01;;;;;;;3.78;2.17;;;;;;;26.79;53.15;99514.13;5110777;28;20019;-64
2022/09/13 08:01:35;;;;;;;3.45;1.88;;;;;;;26.17;55.83;99500.84;5110441;28;20490;-64
2022/09/13 08:04:06;;;;;;;4.05;1.92;;;;;;;26.72;57.68;99518.56;5109519;28;20408;-64
2022/09/13 08:06:34;;;;;;;6.07;1.73;;;;;;;27.19;54.76;99523.34;5109340;28;20047;-65
2022/09/13 08:09:00;;;;;;;6.82;2.70;;;;;;;27.50;54.02;99526.31;5109311;28;20020;-65
2022/09/13 08:11:42;;;;;;;3.83;1.90;;;;;;;27.86;51.64;99522.22;5108980;28;20023;-65
2022/09/13 08:14:10;;;;;;;3.05;1.67;;;;;;;28.18;50.28;99530.47;5108701;28;20070;-64
2022/09/13 08:16:38;;;;;;;4.65;2.28;;;;;;;28.41;48.37;99533.31;5108915;28;20132;-64
2022/09/13 08:19:04;;;;;;;4.13;2.10;;;;;;;28.60;50.86;99534.84;5109841;28;20391;-64
2022/09/13 08:21:35;;;;;;;5.18;2.05;;;;;;;28.62;48.60;99547.31;5110334;28;20328;-64
2022/09/13 08:24:01;;;;;;;3.00;1.70;;;;;;;28.58;48.49;99561.53;5109993;28;20054;-64
2022/09/13 08:26:29;;;;;;;4.53;2.17;;;;;;;28.52;47.25;99562.25;5110314;28;20134;-64
2022/09/13 08:29:00;;;;;;;6.43;1.70;;;;;;;28.32;48.00;99567.19;5110450;28;20027;-64
2022/09/13 08:31:26;;;;;;;3.55;1.50;;;;;;;28.73;47.82;99568.00;5104439;28;20048;-64
2022/09/13 08:33:52;;;;;;;4.28;1.65;;;;;;;29.07;46.52;99563.94;5110023;28;20036;-65
2022/09/13 08:36:18;;;;;;;3.83;2.05;;;;;;;29.27;45.22;99570.72;5110342;28;20384;-64
2022/09/13 08:38:52;;;;;;;7.50;1.67;;;;;;;29.57;44.69;99561.59;5110009;28;20036;-64
2022/09/13 08:41:18;;;;;;;9.05;1.70;;;;;;;29.19;46.51;99564.41;5095640;28;20023;-64
2022/09/13 08:43:58;;;;;;;7.03;2.25;;;;;;;28.75;49.60;99566.78;5089399;28;20107;-64
2022/09/13 08:46:32;;;;;;;3.05;1.55;;;;;;;28.36;51.09;99563.09;5088950;28;20020;-65
2022/09/13 08:49:03;;;;;;;3.50;1.58;;;;;;;28.30;50.52;99552.84;5087804;28;20588;-64
2022/09/13 08:51:46;;;;;;;6.50;1.80;;;;;;;28.41;51.63;99557.94;5087322;28;20023;-64
2022/09/13 08:54:13;;;;;;;;;;;;;;;28.38;51.13;99566.50;5088328;28;20379;-64
2022/09/13 08:57:14;;;;;;;2.42;1.42;;;;;;;28.05;51.94;99576.63;5092473;28;20006;-65
2022/09/13 08:59:57;;;;;;;3.47;1.42;;;;;;;28.56;52.24;99582.75;5108180;28;20386;-64
2022/09/13 09:02:43;;;;;;;4.63;1.70;;;;;;;29.11;50.71;99602.81;5109624;28;20055;-64
2022/09/13 09:05:19;;;;;;;4.68;1.48;;;;;;;29.32;51.76;99611.28;5110026;28;20604;-64
2022/09/13 09:07:57;;;;;;;4.05;1.42;;;;;;;29.55;50.35;99606.69;5109762;28;20126;-64
2022/09/13 09:10:27;;;;;;;5.90;1.73;;;;;;;29.73;48.77;99609.19;5109429;28;20015;-64
2022/09/13 09:13:22;;;;;;;4.35;2.13;;;;;;;30.00;49.51;99606.75;5109247;28;20034;-64
2022/09/13 09:15:52;;;;;;;2.13;1.38;;;;;;;30.40;48.19;99591.84;5089132;28;20114;-65
2022/09/13 09:18:18;;;;;;;2.10;1.25;;;;;;;30.53;47.67;99581.94;5087819;28;20020;-64
2022/09/13 09:20:49;;;;;;;2.30;1.42;;;;;;;30.75;45.80;99586.53;5087555;28;20400;-64
2022/09/13 09:23:25;;;;;;;3.78;1.50;;;;;;;30.34;46.59;99584.38;5087703;28;20149;-64
2022/09/13 09:26:17;;;;;;;4.70;1.50;;;;;;;30.12;47.27;99602.53;5087741;28;20020;-64
2022/09/13 09:28:46;;;;;;;3.55;1.60;;;;;;;30.17;45.83;99619.31;5087812;28;20480;-64
2022/09/13 09:31:42;;;;;;;3.70;1.50;;;;;;;30.57;46.17;99618.97;5090854;28;20386;-64
2022/09/13 09:34:31;;;;;;;2.72;1.70;;;;;;;30.97;45.08;99614.13;5109371;28;20438;-65
2022/09/13 09:37:21;;;;;;;3.00;1.30;;;;;;;31.24;46.12;99627.16;5109454;28;20031;-66
2022/09/13 09:39:48;;;;;;;4.90;1.70;;;;;;;31.67;46.29;99615.28;5107280;28;20432;-65
2022/09/13 09:42:18;;;;;;;2.90;1.25;;;;;;;31.92;45.94;99627.66;5108211;28;20084;-65
2022/09/13 09:44:51;;;;;;;3.95;1.60;;;;;;;32.43;42.22;99620.13;5107981;28;20307;-65
2022/09/13 09:47:27;;;;;;;4.32;1.30;;;;;;;32.87;43.14;99605.00;5107535;28;20027;-64
2022/09/13 09:50:09;;;;;;;2.83;1.20;;;;;;;33.13;40.66;99607.97;5107701;28;20574;-65
2022/09/13 09:52:38;;;;;;;3.22;1.23;;;;;;;33.25;40.94;99599.97;5108037;28;20024;-65
2022/09/13 09:55:21;;;;;;;2.88;1.23;;;;;;;32.88;42.89;99584.66;5109572;28;20614;-64
2022/09/13 09:57:56;;;;;;;5.13;1.60;;;;;;;32.29;42.87;99577.84;5109645;28;20028;-64
2022/09/13 10:00:31;;;;;;;2.55;1.25;;;;;;;31.58;42.64;99569.72;5109134;28;20027;-64
2022/09/13 10:03:05;;;;;;;4.25;1.27;;;;;;;31.02;46.03;99559.44;5108504;28;20382;-65
2022/09/13 10:05:34;;;;;;;6.22;1.80;;;;;;;31.11;44.30;99550.03;5111281;28;20489;-64
2022/09/13 10:08:04;;;;;;;2.70;1.40;;;;;;;31.59;44.51;99538.41;5111123;28;20020;-64
2022/09/13 10:10:37;;;;;;;2.35;1.30;;;;;;;32.13;44.52;99542.34;5109913;28;20028;-65
2022/09/13 10:13:06;;;;;;;4.60;2.05;;;;;;;32.68;42.87;99545.13;5109201;28;20020;-65
2022/09/13 10:15:34;;;;;;;4.80;2.20;;;;;;;33.26;41.43;99555.63;5109895;28;20020;-65
2022/09/13 10:18:24;;;;;;;4.25;1.95;;;;;;;33.75;41.51;99560.06;5110836;28;20485;-64
2022/09/13 10:21:06;;;;;;;4.15;2.00;;;;;;;33.42;39.41;99570.16;5110632;28;20027;-64
2022/09/13 10:23:36;;;;;;;3.38;1.85;;;;;;;33.06;41.76;99568.50;5110138;28;20044;-65
2022/09/13 10:26:09;;;;;;;8.43;1.50;;;;;;;33.28;41.18;99575.59;5110791;28;20470;-64
2022/09/13 10:28:45;;;;;;;;;;;;;;;33.68;42.68;99571.09;5111829;28;20026;-64
2022/09/13 10:31:16;;;;;;;3.95;1.50;;;;;;;33.95;40.29;99566.50;5111265;28;19932;-65
2022/09/13 10:34:04;;;;;;;2.38;1.48;;;;;;;33.52;40.99;99559.59;5094827;28;20307;-64
2022/09/13 10:36:33;;;;;;;4.55;1.70;;;;;;;33.59;40.98;99550.28;5090400;28;20031;-64
2022/09/13 10:39:03;;;;;;;3.15;1.30;;;;;;;33.51;39.43;99552.38;5091414;28;20154;-64
2022/09/13 10:41:32;;;;;;;2.25;1.55;;;;;;;33.04;41.76;99556.81;5091967;28;20032;-64
2022/09/13 10:44:03;;;;;;;4.22;2.00;;;;;;;32.77;41.56;99557.69;5091923;28;20035;-64
2022/09/13 10:46:35;;;;;;;4.70;1.80;;;;;;;32.48;42.49;99555.16;5092413;28;20043;-65
2022/09/13 10:49:01;;;;;;;3.13;1.90;;;;;;;32.18;45.02;99548.09;5092340;28;20049;-65
2022/09/13 10:51:26;;;;;;;4.20;1.70;;;;;;;31.80;46.58;99549.41;5091904;28;20077;-65
2022/09/13 10:54:22;;;;;;;3.28;1.42;;;;;;;31.23;47.08;99559.50;5091562;28;20429;-64
2022/09/13 10:56:49;;;;;;;4.25;1.50;;;;;;;30.96;48.36;99550.06;5096902;28;20038;-64
2022/09/13 10:59:18;;;;;;;4.82;1.50;;;;;;;30.74;50.39;99546.34;5112139;28;20028;-65
2022/09/13 11:01:52;;;;;;;2.28;1.30;;;;;;;30.64;51.15;99545.78;5111658;28;20400;-64
2022/09/13 11:04:54;;;;;;;3.83;1.25;;;;;;;30.79;49.75;99548.59;5111729;28;20022;-64
2022/09/13 11:07:47;;;;;;;3.22;1.50;;;;;;;31.01;49.62;99553.09;5111609;28;20386;-65
2022/09/13 11:10:31;;;;;;;2.42;1.30;;;;;;;31.26;46.84;99545.38;5100454;28;20368;-65
2022/09/13 11:13:11;;;;;;;2.85;1.58;;;;;;;31.90;45.87;99541.69;5111516;28;20486;-65
2022/09/13 11:15:50;;;;;;;3.53;1.20;;;;;;;32.28;45.88;99548.63;5096676;28;20434;-65
2022/09/13 11:18:47;;;;;;;2.10;1.20;;;;;;;32.65;44.56;99548.31;5091359;28;20431;-65
2022/09/13 11:21:28;;;;;;;3.03;1.08;;;;;;;33.15;42.30;99542.44;5069880;28;20403;-64
2022/09/13 11:24:20;;;;;;;4.07;1.00;;;;;;;33.55;42.87;99526.91;5089299;28;20040;-65
2022/09/13 11:26:57;;;;;;;3.28;1.20;;;;;;;33.36;43.41;99534.03;5089518;28;20031;-65
2022/09/13 11:29:34;;;;;;;1.90;1.20;;;;;;;33.25;43.14;99537.41;5089710;28;20035;-65
2022/09/13 11:32:20;;;;;;;3.05;1.30;;;;;;;33.41;40.77;99532.56;5098952;28;20070;-64
2022/09/13 11:34:50;;;;;;;2.95;1.20;;;;;;;33.52;40.57;99529.25;5109601;28;20034;-64
2022/09/13 11:37:42;;;;;;;2.45;1.30;;;;;;;33.66;41.04;99522.72;5109783;28;20038;-64
2022/09/13 11:40:32;;;;;;;4.72;1.50;;;;;;;33.66;41.02;99518.03;5109748;28;20062;-65
2022/09/13 11:43:12;;;;;;;3.45;1.77;;;;;;;33.57;40.24;99516.53;5110203;28;20207;-65
2022/09/13 11:46:00;;;;;;;7.15;3.35;;;;;;;33.92;41.51;99512.56;5091471;28;20034;-65
2022/09/13 11:48:51;;;;;;;3.78;1.80;;;;;;;33.61;38.45;99508.69;5110207;28;20023;-64
2022/09/13 11:51:25;;;;;;;2.63;1.25;;;;;;;33.53;41.48;99506.09;5109843;28;20048;-65
2022/09/13 11:53:58;;;;;;;5.40;1.10;;;;;;;33.87;38.89;99497.69;5110718;28;20081;-64
2022/09/13 11:56:37;;;;;;;2.05;1.10;;;;;;;33.69;40.15;99494.69;5110271;28;20023;-65